createdAt,value
2022-12-27T00:00:50.721Z,1.00
2022-12-27T00:03:55.264Z,1.10
2022-12-27T00:06:58.201Z,1.20
2022-12-27T00:10:02.412Z,1.30
2022-12-27T00:13:05.176Z,0.73
2022-12-27T00:16:12.723Z,0.80
2022-12-27T00:19:17.251Z,1.00
2022-12-27T00:22:20.267Z,0.80
2022-12-27T00:25:24.258Z,1.15
2022-12-27T00:28:27.046Z,0.90
2022-12-27T00:31:34.042Z,1.00
2022-12-27T00:34:38.298Z,1.00
2022-12-27T00:37:41.044Z,0.80
2022-12-27T00:40:45.385Z,1.08
2022-12-27T00:43:48.789Z,1.00
2022-12-27T00:46:54.141Z,1.13
2022-12-27T00:49:56.845Z,0.80
2022-12-27T00:53:00.968Z,0.90
2022-12-27T00:56:09.180Z,0.80
2022-12-27T00:59:12.688Z,0.80
2022-12-27T01:02:18.091Z,0.82
2022-12-27T01:05:22.262Z,0.90
2022-12-27T01:08:26.251Z,1.05
2022-12-27T01:11:29.824Z,1.02
2022-12-27T01:14:32.577Z,0.90
2022-12-27T01:17:38.019Z,1.20
2022-12-27T01:20:41.016Z,0.90
2022-12-27T01:23:45.707Z,1.50
2022-12-27T01:26:48.680Z,0.90
2022-12-27T01:29:54.240Z,0.93
2022-12-27T01:32:59.844Z,1.17
2022-12-27T01:36:10.740Z,0.83
2022-12-27T01:39:17.368Z,1.10
2022-12-27T01:42:39.767Z,0.98
2022-12-27T01:45:42.772Z,0.80
2022-12-27T01:48:48.957Z,0.82
2022-12-27T01:51:51.929Z,0.73
2022-12-27T01:54:59.191Z,0.93
2022-12-27T01:58:06.136Z,1.50
2022-12-27T02:01:14.792Z,1.08
2022-12-27T02:04:23.140Z,1.13
2022-12-27T02:07:32.579Z,0.87
2022-12-27T02:10:37.528Z,1.25
2022-12-27T02:13:44.483Z,1.30
2022-12-27T02:16:48.760Z,1.42
2022-12-27T02:20:01.173Z,1.30
2022-12-27T02:23:58.947Z,1.30
2022-12-27T02:27:07.103Z,1.63
2022-12-27T02:30:14.605Z,1.25
2022-12-27T02:33:24.740Z,0.80
2022-12-27T02:36:32.529Z,1.40
2022-12-27T02:39:40.282Z,1.10
2022-12-27T02:43:04.580Z,1.20
2022-12-27T02:46:33.291Z,1.25
2022-12-27T02:49:57.744Z,1.00
2022-12-27T02:53:08.968Z,1.30
2022-12-27T02:56:46.198Z,1.10
2022-12-27T03:00:24.637Z,1.48
2022-12-27T03:03:44.729Z,1.58
2022-12-27T03:07:00.173Z,1.05
2022-12-27T03:10:34.259Z,1.00
2022-12-27T03:14:04.245Z,0.83
2022-12-27T03:17:16.165Z,1.27
2022-12-27T03:20:40.406Z,1.30
2022-12-27T03:24:04.625Z,1.25
2022-12-27T03:27:18.247Z,1.35
2022-12-27T03:30:39.417Z,1.27
2022-12-27T03:33:44.998Z,1.60
2022-12-27T03:37:08.852Z,1.17
2022-12-27T03:40:19.506Z,1.10
2022-12-27T03:43:21.516Z,1.40
2022-12-27T03:46:35.729Z,1.30
2022-12-27T03:49:43.311Z,1.38
2022-12-27T03:52:53.777Z,1.20
2022-12-27T03:55:58.178Z,1.10
2022-12-27T03:59:04.071Z,1.27
2022-12-27T04:02:09.196Z,1.10
2022-12-27T04:05:14.111Z,1.13
2022-12-27T04:08:35.918Z,1.20
2022-12-27T04:11:57.282Z,1.30
2022-12-27T04:15:17.605Z,1.40
2022-12-27T04:18:38.086Z,1.20
2022-12-27T04:21:59.447Z,1.30
2022-12-27T04:25:21.132Z,1.30
2022-12-27T04:28:42.576Z,1.25
2022-12-27T04:32:02.646Z,1.65
2022-12-27T04:35:07.404Z,1.50
2022-12-27T04:38:10.234Z,1.40
2022-12-27T04:41:32.544Z,1.93
2022-12-27T04:44:59.191Z,1.50
2022-12-27T04:48:19.592Z,1.50
2022-12-27T04:51:40.824Z,1.80
2022-12-27T04:54:59.766Z,1.83
2022-12-27T04:58:03.985Z,1.90
2022-12-27T05:01:25.705Z,1.90
2022-12-27T05:04:30.008Z,2.00
2022-12-27T05:07:51.301Z,1.88
2022-12-27T05:11:11.555Z,2.47
2022-12-27T05:14:17.869Z,1.87
2022-12-27T05:17:20.843Z,2.17
2022-12-27T05:20:23.707Z,1.73
2022-12-27T05:23:43.962Z,1.92
2022-12-27T05:26:49.855Z,1.83
2022-12-27T05:29:54.970Z,1.85
2022-12-27T05:33:01.653Z,2.08
2022-12-27T05:36:04.675Z,1.60
2022-12-27T05:39:08.494Z,1.70
2022-12-27T05:42:11.381Z,1.80
2022-12-27T05:45:16.732Z,1.70
2022-12-27T05:48:19.714Z,1.90
2022-12-27T05:51:23.894Z,1.50
2022-12-27T05:54:27.818Z,1.50
2022-12-27T05:57:31.038Z,1.60
2022-12-27T06:00:36.666Z,1.20
2022-12-27T06:03:39.905Z,1.40
2022-12-27T06:06:43.070Z,1.33
2022-12-27T06:09:45.916Z,1.50
2022-12-27T06:12:48.736Z,1.33
2022-12-27T06:15:53.895Z,1.27
2022-12-27T06:18:57.996Z,1.40
2022-12-27T06:22:00.937Z,1.40
2022-12-27T06:25:03.891Z,1.27
2022-12-27T06:28:06.828Z,1.50
2022-12-27T06:31:12.514Z,1.38
2022-12-27T06:34:15.634Z,1.50
2022-12-27T06:37:19.774Z,1.20
2022-12-27T06:40:23.866Z,1.10
2022-12-27T06:43:27.076Z,1.13
2022-12-27T06:46:31.625Z,1.15
2022-12-27T06:49:34.466Z,1.48
2022-12-27T06:52:38.565Z,1.30
2022-12-27T06:55:41.394Z,1.50
2022-12-27T06:58:44.612Z,1.40
2022-12-27T07:01:50.083Z,1.20
2022-12-27T07:04:53.393Z,1.10
2022-12-27T07:07:57.202Z,1.17
2022-12-27T07:11:02.865Z,1.50
2022-12-27T07:14:09.565Z,1.10
2022-12-27T07:17:14.770Z,1.10
2022-12-27T07:20:18.712Z,1.35
2022-12-27T07:23:21.448Z,1.10
2022-12-27T07:26:27.751Z,1.48
2022-12-27T07:29:30.734Z,1.20
2022-12-27T07:32:35.848Z,1.30
2022-12-27T07:35:44.963Z,1.25
2022-12-27T07:38:48.706Z,1.30
2022-12-27T07:41:51.543Z,1.33
2022-12-27T07:44:54.374Z,1.20
2022-12-27T07:47:59.471Z,0.93
2022-12-27T07:51:02.796Z,1.27
2022-12-27T07:54:06.979Z,1.45
2022-12-27T07:57:10.636Z,1.38
2022-12-27T08:00:14.540Z,1.37
2022-12-27T08:03:20.416Z,1.15
2022-12-27T08:06:27.041Z,1.40
2022-12-27T08:09:32.485Z,1.10
2022-12-27T08:12:36.143Z,1.65
2022-12-27T08:15:40.955Z,1.37
2022-12-27T08:18:46.113Z,1.40
2022-12-27T08:21:48.832Z,1.90
2022-12-27T08:24:52.646Z,1.65
2022-12-27T08:28:04.731Z,1.20
2022-12-27T08:31:08.992Z,1.57
2022-12-27T08:34:14.074Z,1.50
2022-12-27T08:37:17.981Z,1.92
2022-12-27T08:40:21.033Z,1.70
2022-12-27T08:43:24.709Z,1.85
2022-12-27T08:46:27.431Z,1.73
2022-12-27T08:49:32.565Z,1.77
2022-12-27T08:52:36.280Z,2.03
2022-12-27T08:55:38.993Z,2.10
2022-12-27T08:58:42.630Z,1.57
2022-12-27T09:01:45.515Z,1.60
2022-12-27T09:04:50.741Z,2.03
2022-12-27T09:07:54.458Z,1.87
2022-12-27T09:10:57.482Z,2.10
2022-12-27T09:14:03.090Z,2.08
2022-12-27T09:17:07.106Z,1.80
2022-12-27T09:20:14.179Z,2.30
2022-12-27T09:23:18.001Z,2.23
2022-12-27T09:26:22.570Z,1.90
2022-12-27T09:29:26.467Z,1.63
2022-12-27T09:32:29.243Z,1.75
2022-12-27T09:35:38.443Z,2.03
2022-12-27T09:38:43.216Z,1.97
2022-12-27T09:45:23.775Z,2.17
2022-12-27T09:48:33.714Z,2.38
2022-12-27T09:51:48.617Z,2.17
2022-12-27T09:55:05.056Z,2.10
2022-12-27T09:58:24.884Z,2.00
2022-12-27T10:01:36.184Z,2.20
2022-12-27T10:05:17.903Z,2.00
2022-12-27T10:08:21.723Z,2.00
2022-12-27T10:11:41.233Z,2.40
2022-12-27T10:15:00.188Z,2.17
2022-12-27T10:18:16.274Z,2.70
2022-12-27T10:21:23.861Z,2.42
2022-12-27T10:24:36.917Z,2.83
2022-12-27T10:27:42.346Z,2.30
2022-12-27T10:30:45.705Z,2.22
2022-12-27T10:37:17.598Z,2.30
2022-12-27T10:40:29.818Z,2.70
2022-12-27T10:43:41.251Z,2.43
2022-12-27T10:46:50.541Z,2.80
2022-12-27T10:50:06.882Z,2.40
2022-12-27T10:53:35.500Z,2.90
2022-12-27T10:56:41.535Z,3.13
2022-12-27T10:59:45.787Z,2.70
2022-12-27T11:02:53.542Z,3.05
2022-12-27T11:06:03.389Z,2.50
2022-12-27T11:09:30.864Z,2.80
2022-12-27T11:12:36.149Z,2.70
2022-12-27T11:15:42.935Z,2.73
2022-12-27T11:18:49.223Z,2.88
2022-12-27T11:21:54.524Z,2.88
2022-12-27T11:25:00.899Z,2.60
2022-12-27T11:28:17.592Z,3.30
2022-12-27T11:34:53.665Z,2.85
2022-12-27T11:37:58.210Z,2.80
2022-12-27T11:41:06.685Z,2.83
2022-12-27T11:44:20.903Z,2.90
2022-12-27T11:51:05.076Z,2.85
2022-12-27T11:54:21.883Z,3.13
2022-12-27T11:57:40.800Z,2.90
2022-12-27T12:00:59.156Z,2.80
2022-12-27T12:04:42.915Z,2.77
2022-12-27T12:08:03.716Z,2.67
2022-12-27T12:11:16.704Z,2.60
2022-12-27T12:14:58.867Z,2.40
2022-12-27T12:18:28.730Z,2.80
2022-12-27T12:21:37.021Z,2.50
2022-12-27T12:25:37.446Z,2.80
2022-12-27T12:28:59.879Z,2.72
2022-12-27T12:32:18.559Z,2.50
2022-12-27T12:35:51.799Z,2.60
2022-12-27T12:39:03.827Z,2.50
2022-12-27T12:42:20.349Z,2.28
2022-12-27T12:45:39.959Z,2.30
2022-12-27T12:49:11.619Z,2.15
2022-12-27T12:52:32.421Z,2.33
2022-12-27T12:55:48.172Z,1.80
2022-12-27T12:59:03.863Z,1.98
2022-12-27T13:02:42.122Z,2.17
2022-12-27T13:05:52.383Z,2.30
2022-12-27T13:09:04.879Z,2.07
2022-12-27T13:12:14.554Z,2.10
2022-12-27T13:15:30.643Z,2.28
2022-12-27T13:18:44.307Z,2.55
2022-12-27T13:21:59.648Z,2.25
2022-12-27T13:25:16.543Z,2.10
2022-12-27T13:28:37.205Z,2.27
2022-12-27T13:31:48.221Z,1.88
2022-12-27T13:35:06.418Z,2.28
2022-12-27T13:38:20.562Z,2.13
2022-12-27T13:41:40.365Z,2.17
2022-12-27T13:44:55.564Z,2.00
2022-12-27T13:48:10.669Z,1.88
2022-12-27T13:51:38.428Z,1.70
2022-12-27T13:55:22.043Z,1.88
2022-12-27T13:59:06.923Z,2.13
2022-12-27T14:02:30.607Z,1.97
2022-12-27T14:06:19.050Z,2.03
2022-12-27T14:09:45.478Z,2.10
2022-12-27T14:13:09.369Z,2.35
2022-12-27T14:16:36.175Z,2.10
2022-12-27T14:20:04.719Z,2.20
2022-12-27T14:23:35.253Z,1.75
2022-12-27T14:26:59.547Z,1.90
2022-12-27T14:30:39.584Z,1.77
2022-12-27T14:34:18.146Z,2.00
2022-12-27T14:37:45.258Z,2.00
2022-12-27T14:41:31.432Z,1.88
2022-12-27T14:45:08.186Z,2.10
2022-12-27T14:48:41.660Z,1.92
2022-12-27T14:52:25.600Z,1.83
2022-12-27T14:55:40.710Z,2.30
2022-12-27T14:59:04.919Z,2.10
2022-12-27T15:02:27.651Z,1.75
2022-12-27T15:09:13.376Z,2.10
2022-12-27T15:12:27.983Z,2.30
2022-12-27T15:15:47.006Z,2.28
2022-12-27T15:19:18.176Z,2.35
2022-12-27T15:22:30.303Z,2.40
2022-12-27T15:25:48.700Z,2.37
2022-12-27T15:29:08.839Z,2.57
2022-12-27T15:32:24.824Z,2.45
2022-12-27T15:35:41.437Z,2.28
2022-12-27T15:38:54.008Z,2.63
2022-12-27T15:42:09.744Z,2.33
2022-12-27T15:45:30.304Z,2.03
2022-12-27T15:49:08.580Z,2.70
2022-12-27T15:52:20.703Z,2.60
2022-12-27T15:59:54.177Z,2.70
2022-12-27T16:03:00.026Z,2.47
2022-12-27T16:06:05.482Z,2.75
2022-12-27T16:09:36.674Z,2.80
2022-12-27T16:12:44.024Z,2.80
2022-12-27T16:15:55.155Z,3.10
2022-12-27T16:19:13.926Z,2.70
2022-12-27T16:22:27.556Z,2.72
2022-12-27T16:25:34.683Z,3.00
2022-12-27T16:28:45.136Z,3.25
2022-12-27T16:31:50.956Z,3.30
2022-12-27T16:34:59.021Z,3.20
2022-12-27T16:38:04.486Z,3.08
2022-12-27T16:41:17.059Z,3.15
2022-12-27T16:44:36.249Z,3.28
2022-12-27T16:48:18.614Z,3.43
2022-12-27T16:51:33.014Z,3.20
2022-12-27T16:54:50.797Z,3.63
2022-12-27T16:58:14.267Z,3.58
2022-12-27T17:01:57.121Z,4.13
2022-12-27T17:05:01.466Z,4.33
2022-12-27T17:08:17.893Z,4.87
2022-12-27T17:11:27.007Z,4.22
2022-12-27T17:14:37.015Z,4.55
2022-12-27T17:17:40.087Z,4.88
2022-12-27T17:20:46.468Z,4.37
2022-12-27T17:23:54.584Z,4.00
2022-12-27T17:27:12.809Z,4.60
2022-12-27T17:30:24.731Z,4.00
2022-12-27T17:33:41.157Z,3.65
2022-12-27T17:36:57.326Z,3.53
2022-12-27T17:40:22.000Z,3.20
2022-12-27T17:43:54.075Z,3.30
2022-12-27T17:50:41.557Z,3.13
2022-12-27T17:54:07.399Z,3.37
2022-12-27T17:57:32.757Z,3.60
2022-12-27T18:00:39.242Z,3.25
2022-12-27T18:03:47.212Z,3.33
2022-12-27T18:06:50.755Z,4.03
2022-12-27T18:09:57.952Z,3.47
2022-12-27T18:13:06.830Z,3.53
2022-12-27T18:16:17.769Z,4.25
2022-12-27T18:19:22.665Z,3.90
2022-12-27T18:22:25.853Z,4.15
2022-12-27T18:25:32.378Z,4.10
2022-12-27T18:28:37.845Z,4.23
2022-12-27T18:31:49.500Z,4.03
2022-12-27T18:34:57.645Z,4.07
2022-12-27T18:38:01.740Z,3.88
2022-12-27T18:41:08.437Z,4.30
2022-12-27T18:44:26.541Z,4.53
2022-12-27T18:47:30.205Z,4.13
2022-12-27T18:50:36.641Z,4.38
2022-12-27T18:53:40.565Z,4.47
2022-12-27T18:56:45.285Z,4.33
2022-12-27T19:00:01.840Z,4.53
2022-12-27T19:03:16.532Z,6.25
2022-12-27T19:06:20.683Z,5.80
2022-12-27T19:09:26.432Z,5.30
2022-12-27T19:12:35.306Z,5.50
2022-12-27T19:15:44.735Z,4.77
2022-12-27T19:18:52.218Z,5.93
2022-12-27T19:21:56.596Z,5.53
2022-12-27T19:25:01.478Z,4.97
2022-12-27T19:28:08.560Z,6.30
2022-12-27T19:31:19.417Z,5.60
2022-12-27T19:34:24.627Z,5.35
2022-12-27T19:37:29.020Z,5.43
2022-12-27T19:43:55.659Z,5.13
2022-12-27T19:46:59.713Z,5.00
2022-12-27T19:50:03.695Z,4.75
2022-12-27T19:53:06.480Z,5.45
2022-12-27T19:56:11.405Z,5.45
2022-12-27T19:59:17.052Z,6.87
2022-12-27T20:02:23.523Z,7.80
2022-12-27T20:06:13.724Z,7.30
2022-12-27T20:08:53.067Z,6.13
2022-12-27T20:11:57.059Z,5.32
2022-12-27T20:15:01.046Z,5.53
2022-12-27T20:18:05.473Z,5.80
2022-12-27T20:24:31.521Z,5.50
2022-12-27T20:27:35.324Z,6.22
2022-12-27T20:30:39.683Z,6.57
2022-12-27T20:33:44.980Z,6.30
2022-12-27T20:36:48.721Z,6.63
2022-12-27T20:39:52.027Z,6.30
2022-12-27T20:42:56.960Z,5.93
2022-12-27T20:46:06.240Z,6.07
2022-12-27T20:49:10.382Z,6.07
2022-12-27T20:52:14.156Z,5.07
2022-12-27T20:55:16.867Z,5.63
2022-12-27T20:58:20.698Z,5.72
2022-12-27T21:01:26.817Z,5.73
2022-12-27T21:04:32.139Z,4.70
2022-12-27T21:07:35.971Z,4.60
2022-12-27T21:10:38.671Z,5.07
2022-12-27T21:13:44.096Z,4.30
2022-12-27T21:16:47.909Z,4.70
2022-12-27T21:19:52.096Z,4.60
2022-12-27T21:22:55.854Z,4.60
2022-12-27T21:26:04.875Z,4.45
2022-12-27T21:29:09.320Z,4.25
2022-12-27T21:32:13.183Z,3.80
2022-12-27T21:35:17.415Z,3.90
2022-12-27T21:38:21.276Z,3.88
2022-12-27T21:41:27.079Z,3.78
2022-12-27T21:44:30.950Z,3.70
2022-12-27T21:47:34.711Z,3.60
2022-12-27T21:50:38.966Z,3.40
2022-12-27T21:53:43.127Z,3.65
2022-12-27T21:56:45.857Z,3.85
2022-12-27T21:59:49.907Z,3.60
2022-12-27T22:02:53.891Z,3.30
2022-12-27T22:05:58.136Z,2.80
2022-12-27T22:09:03.337Z,3.00
2022-12-27T22:12:06.454Z,2.95
2022-12-27T22:15:11.286Z,2.90
2022-12-27T22:18:15.061Z,3.30
2022-12-27T22:21:22.482Z,3.10
2022-12-27T22:24:26.340Z,3.10
2022-12-27T22:27:29.001Z,2.90
2022-12-27T22:30:32.718Z,2.80
2022-12-27T22:33:37.390Z,2.43
2022-12-27T22:36:41.727Z,2.80
2022-12-27T22:39:45.482Z,2.92
2022-12-27T22:42:49.235Z,2.63
2022-12-27T22:45:53.936Z,3.10
2022-12-27T22:48:59.449Z,3.00
2022-12-27T22:52:03.521Z,2.70
2022-12-27T22:55:08.545Z,2.60
2022-12-27T22:58:11.250Z,2.90
2022-12-27T23:01:16.496Z,3.10
2022-12-27T23:04:20.392Z,3.23
2022-12-27T23:08:05.020Z,3.30
2022-12-27T23:10:48.385Z,3.28
2022-12-27T23:13:57.731Z,3.40
2022-12-27T23:17:01.604Z,2.90
2022-12-27T23:23:28.576Z,3.30
2022-12-27T23:26:32.371Z,2.85
2022-12-27T23:29:36.168Z,3.08
2022-12-27T23:32:39.067Z,3.78
2022-12-27T23:35:42.851Z,3.20
2022-12-27T23:38:47.226Z,3.20
2022-12-27T23:41:49.977Z,3.50
2022-12-27T23:44:53.931Z,3.28
2022-12-27T23:47:56.680Z,2.97
2022-12-27T23:51:00.606Z,3.43
2022-12-27T23:54:04.821Z,3.03
2022-12-27T23:57:22.296Z,2.80
